Friday, August 18, 2017, 5:52 PM EDT
Back to Local

KAFN, Jaffrey Muni-silver Ranch

Location: Jaffrey, NH, United States Lat: 42.8
Local Time: 5:52 PM EDT (21:52 GMT) Lon: -72
Time Zone: US/Eastern Elev: 1040 ft

Show me the last for .
Show Decoded

2017-08-18 17:42 METAR KAFN 182142Z AUTO 16005KT 3SM -RA BR OVC005 23/23 A2983 RMK AO2 LTG DSNT
                 NW RAB16E25B36 P0000 T02280228 =
2017-08-18 17:25 METAR KAFN 182125Z AUTO 15005KT 2 1/2SM BR OVC006 23/23 A2983 RMK AO2 RAB16E25
                 P0000 T02280228 =
2017-08-18 17:12 METAR KAFN 182112Z AUTO 16003KT 1 3/4SM BR OVC007 23/23 A2983 RMK AO2 CIG
                 004V009 T02280228 =
2017-08-18 16:52 METAR KAFN 182052Z AUTO 17003KT 6SM BR OVC008 23/23 A2984 RMK AO2 RAE49 CIG
                 005V010 SLP104 P0004 60009 T02280228 57017 =
2017-08-18 16:43 METAR KAFN 182043Z AUTO 18004KT 5SM -RA BR OVC009 23/23 A2984 RMK AO2 CIG
                 006V010 P0004 T02280228 =
2017-08-18 16:13 METAR KAFN 182013Z AUTO 00000KT 3SM -RA BR OVC014 23/23 A2985 RMK AO2 P0001
                 T02280228 =
2017-08-18 15:52 METAR KAFN 181952Z AUTO 00000KT 7SM -RA OVC018 23/22 A2986 RMK AO2 SLP110 P0002
                 T02280222 =
2017-08-18 15:19 METAR KAFN 181919Z AUTO 00000KT 5SM -RA BR BKN024 OVC032 23/22 A2987 RMK AO2
                 P0001 T02280222 =
2017-08-18 15:08 METAR KAFN 181908Z AUTO 00000KT 6SM -RA BR OVC030 23/22 A2987 RMK AO2 P0001
                 T02280222 =
2017-08-18 14:52 METAR KAFN 181852Z AUTO 00000KT 6SM -RA BR BKN026 OVC032 22/22 A2987 RMK AO2
                 SLP116 P0003 T02220222 =
2017-08-18 13:52 METAR KAFN 181752Z AUTO 00000KT 3SM -RA BR SCT003 BKN018 OVC026 21/21 A2989 RMK
                 AO2 SLP122 P0061 60119 T02110211 10211 20178 58009 =
2017-08-18 13:40 METAR KAFN 181740Z AUTO 30003KT 2SM RA BR BKN003 BKN012 OVC024 21/21 A2990 RMK
                 AO2 P0059 T02110211 =
2017-08-18 13:38 METAR KAFN 181738Z AUTO 30003KT 1 3/4SM -RA BR SCT003 BKN012 OVC024 21/21 A2990
                 RMK AO2 P0059 T02110211 =
2017-08-18 13:36 METAR KAFN 181736Z AUTO 00000KT 1 1/4SM -RA BR SCT003 BKN015 OVC024 21/21 A2990
                 RMK AO2 P0058 T02110211 =
2017-08-18 13:24 METAR KAFN 181724Z AUTO 00000KT 1/2SM +RA FG FEW005 BKN018 OVC023 21/21 A2990
                 RMK AO2 P0052 T02110211 =
2017-08-18 12:56 METAR KAFN 181656Z AUTO 18003KT 3/4SM +RA BR FEW013 BKN019 OVC030 21/21 A2990
                 RMK AO2 P0005 T02110211 =
2017-08-18 12:52 METAR KAFN 181652Z AUTO 17004KT 1 1/4SM +RA BR FEW013 BKN024 OVC030 21/21 A2990
                 RMK AO2 SLP128 P0011 T02110211 =
2017-08-18 12:49 METAR KAFN 181649Z AUTO 17005KT 2SM RA BR FEW015 SCT021 OVC030 21/21 A2990 RMK
                 AO2 P0008 =
2017-08-18 12:22 METAR KAFN 181622Z AUTO 18005KT 7SM -RA BKN028 OVC036 21/21 A2991 RMK AO2 P0003
                 T02110206 =
2017-08-18 11:59 METAR KAFN 181559Z AUTO 17008KT 3SM -RA BR FEW022 SCT029 OVC035 21/21 A2991 RMK
                 AO2 P0001 T02060206 =
2017-08-18 11:52 METAR KAFN 181552Z AUTO 19007KT 2 1/2SM RA BR FEW022 BKN029 OVC060 21/20 A2992
                 RMK AO2 SLP133 P0022 T02060200 =
2017-08-18 11:48 METAR KAFN 181548Z AUTO 18006KT 2 1/2SM RA BR FEW022 BKN029 OVC060 21/20 A2992
                 RMK AO2 P0020 =
2017-08-18 11:28 METAR KAFN 181528Z AUTO 18007KT 3SM RA BR FEW014 BKN029 OVC035 21/20 A2992 RMK
                 AO2 P0015 T02060200 =
2017-08-18 11:16 METAR KAFN 181516Z AUTO 19006KT 2SM +RA BR FEW011 SCT017 OVC033 21/20 A2992 RMK
                 AO2 P0012 T02060200 =
2017-08-18 11:10 METAR KAFN 181510Z AUTO 21009G14KT 3SM RA BR FEW011 BKN018 OVC041 21/20 A2993
                 RMK AO2 P0009 T02060200 =
2017-08-18 11:02 METAR KAFN 181502Z AUTO 18009G15KT 2SM -RA BR FEW011 BKN016 OVC041 21/20 A2993
                 RMK AO2 P0006 T02060200 =
2017-08-18 10:52 METAR KAFN 181452Z AUTO 20009G17KT 1 1/4SM RA BR FEW008 BKN017 OVC024 21/20
                 A2993 RMK AO2 RAB1354 SLP137 P0022 60025 T02060200 55001 =
2017-08-18 10:47 METAR KAFN 181447Z AUTO 18009G17KT 1 1/4SM +RA BR SCT008 BKN014 OVC032 21/20
                 A2992 RMK AO2 RAB1354 P0021 =
2017-08-18 10:35 METAR KAFN 181435Z AUTO 18008KT 140V210 2SM RA BR SCT008 BKN014 OVC020 21/21
                 A2992 RMK AO2 VIS 1 1/2V3 RAB1354 P0010 T02060206 =
2017-08-18 10:25 METAR KAFN 181425Z AUTO 18007KT 4SM -RA BR SCT007 BKN011 OVC017 21/21 A2992 RMK
                 AO2 RAB1354 P0006 T02060206 =
2017-08-18 10:16 METAR KAFN 181416Z AUTO 18006KT 3SM -RA BR SCT007 BKN016 OVC030 21/20 A2992 RMK
                 AO2 RAB1354 P0004 T02060200 =
2017-08-18 10:13 METAR KAFN 181413Z AUTO 18007KT 2 1/2SM -RA BR FEW005 BKN009 OVC030 21/20 A2992
                 RMK AO2 RAB1354 P0004 T02060200 =
2017-08-18 09:52 METAR KAFN 181352Z AUTO 17008KT 8SM BKN008 OVC012 20/19 A2992 RMK AO2 RAE49 CIG
                 006V011 SLP133 P0003 T02000194 =
2017-08-18 09:10 METAR KAFN 181310Z AUTO VRB04KT 3SM -RA BR OVC007 19/19 A2993 RMK AO2 CIG
                 006V012 P0002 T01940189 =
2017-08-18 08:52 METAR KAFN 181252Z AUTO VRB04KT 9SM -RA OVC010 19/18 A2993 RMK AO2 RAB43 CIG
                 007V012 SLP139 P0000 T01890183 =
2017-08-18 08:50 METAR KAFN 181250Z AUTO 18005KT 8SM -RA BKN010 OVC016 19/18 A2993 RMK AO2 RAB43
                 CIG 007V012 P0000 =
2017-08-18 08:12 METAR KAFN 181212Z AUTO 00000KT 10SM OVC009 18/17 A2994 RMK AO2 T01780172 =
2017-08-18 07:52 METAR KAFN 181152Z AUTO 00000KT 10SM BKN011 OVC030 18/17 A2996 RMK AO2 RAB08E37
                 SLP147 P0001 60001 70001 T01780167 10178 20161 58001 =
2017-08-18 07:43 METAR KAFN 181143Z AUTO 00000KT 10SM BKN011 OVC030 17/17 A2996 RMK AO2 RAB08E37
                 P0001 T01720172 =
2017-08-18 06:52 METAR KAFN 181052Z AUTO 00000KT 10SM OVC035 18/16 A2996 RMK AO2 SLP147 T01780161
                 =
2017-08-18 05:52 METAR KAFN 180952Z AUTO 00000KT 10SM BKN043 OVC065 17/16 A2997 RMK AO2 SLP148
                 T01720161 =
2017-08-18 04:52 METAR KAFN 180852Z AUTO 00000KT 10SM BKN037 BKN047 OVC120 17/16 A2996 RMK AO2
                 SLP145 T01720156 58017 =
2017-08-18 03:52 METAR KAFN 180752Z AUTO 00000KT 10SM BKN042 OVC070 17/16 A2997 RMK AO2 SLP149
                 T01720156 =
2017-08-18 02:52 METAR KAFN 180652Z AUTO 00000KT 10SM BKN041 OVC050 16/15 A3000 RMK AO2 SLP160
                 T01610150 =
2017-08-18 01:52 METAR KAFN 180552Z AUTO 00000KT 10SM BKN046 16/15 A3001 RMK AO2 SLP163 T01610150
                 10183 20150 58005 =
2017-08-18 00:52 METAR KAFN 180452Z AUTO 00000KT 10SM FEW050 16/15 A3003 RMK AO2 SLP168 T01560150
                 402610094 =
2017-08-17 23:52 METAR KAFN 180352Z AUTO 00000KT 10SM CLR 16/15 A3003 RMK AO2 SLP171 T01560150 =
2017-08-17 22:52 METAR KAFN 180252Z AUTO 00000KT 10SM CLR 15/14 A3003 RMK AO2 SLP170 T01500144
                 50004 =
2017-08-17 21:52 METAR KAFN 180152Z AUTO 00000KT 10SM CLR 16/15 A3003 RMK AO2 SLP173 T01560150 =
2017-08-17 20:52 METAR KAFN 180052Z AUTO 00000KT 10SM CLR 17/15 A3003 RMK AO2 SLP171 T01720150 =
2017-08-17 19:52 METAR KAFN 172352Z AUTO 00000KT 10SM CLR 18/15 A3002 RMK AO2 SLP167 T01830150
                 10261 20183 53003 =
2017-08-17 18:52 METAR KAFN 172252Z AUTO 00000KT 10SM CLR 22/14 A3001 RMK AO2 SLP165 T02170144 =

Support USWX by starting your Amazon purchase here.